Time;durP1;ratioP1;P1;durP2;ratioP2;P2;SDS_P1;SDS_P2;PMS_P1;PMS_P2;Temp;Humidity;BMP_temperature;BMP_pressure;BME280_temperature;BME280_humidity;BME280_pressure;Samples;Min_cycle;Max_cycle;Signal;HPM_P1;HPM_P2
2022/06/03 00:00:16;;;;;;;8.95;5.10;;;;;;;8.91;100.00;102179.19;5050778;28;20056;-77
2022/06/03 00:03:19;;;;;;;7.03;5.03;;;;;;;8.94;100.00;102181.63;5050699;28;20029;-77
2022/06/03 00:06:21;;;;;;;8.95;5.10;;;;;;;8.94;100.00;102174.56;5050639;28;20074;-77
2022/06/03 00:09:07;;;;;;;6.32;5.40;;;;;;;8.99;100.00;102172.44;5049312;28;20456;-77
2022/06/03 00:11:35;;;;;;;9.68;6.07;;;;;;;9.04;100.00;102172.16;5050594;28;20056;-77
2022/06/03 00:14:23;;;;;;;14.43;5.35;;;;;;;9.08;100.00;102168.38;5050280;28;20123;-76
2022/06/03 00:16:54;;;;;;;8.57;5.20;;;;;;;9.13;100.00;102165.41;5050325;28;20025;-78
2022/06/03 00:19:35;;;;;;;8.00;5.15;;;;;;;9.31;100.00;102168.69;5050247;28;20120;-77
2022/06/03 00:22:16;;;;;;;7.70;5.55;;;;;;;9.33;100.00;102170.31;5050503;28;20029;-76
2022/06/03 00:24:55;;;;;;;13.73;5.28;;;;;;;9.39;100.00;102171.72;5049951;28;20044;-77
2022/06/03 00:27:58;;;;;;;13.48;5.38;;;;;;;9.42;100.00;102173.31;5050618;28;20041;-76
2022/06/03 00:30:39;;;;;;;5.85;4.78;;;;;;;9.47;100.00;102166.75;5050151;28;20470;-77
2022/06/03 00:33:23;;;;;;;;;;;;;;;9.49;100.00;102167.53;5050370;28;20437;-77
2022/06/03 00:36:36;;;;;;;7.18;4.95;;;;;;;9.56;100.00;102165.31;5049658;28;20293;-78
2022/06/03 00:39:28;;;;;;;6.60;5.20;;;;;;;9.59;100.00;102166.94;5047552;28;20040;-77
2022/06/03 00:42:09;;;;;;;7.13;4.82;;;;;;;9.60;100.00;102168.59;5050095;28;20255;-77
2022/06/03 00:44:53;;;;;;;11.35;5.22;;;;;;;9.61;100.00;102163.19;5048505;28;20047;-77
2022/06/03 00:47:36;;;;;;;6.88;5.18;;;;;;;9.62;100.00;102164.06;5050042;28;20049;-77
2022/06/03 00:50:17;;;;;;;6.72;4.47;;;;;;;9.61;100.00;102162.34;5049600;28;20028;-77
2022/06/03 00:52:45;;;;;;;9.32;4.20;;;;;;;9.63;100.00;102160.44;5050325;28;20029;-77
2022/06/03 00:55:19;;;;;;;5.82;4.57;;;;;;;9.64;100.00;102164.81;5050176;28;20040;-77
2022/06/03 00:58:13;;;;;;;6.65;4.20;;;;;;;9.66;100.00;102154.94;5050117;28;20025;-77
2022/06/03 01:00:57;;;;;;;7.07;4.47;;;;;;;9.65;100.00;102151.41;5049690;28;20025;-76
2022/06/03 01:03:45;;;;;;;7.28;4.63;;;;;;;9.65;100.00;102150.56;5049879;28;20021;-76
2022/06/03 01:06:27;;;;;;;7.50;4.60;;;;;;;9.65;100.00;102158.53;5050446;28;20100;-78
2022/06/03 01:08:58;;;;;;;6.97;4.22;;;;;;;9.65;100.00;102156.72;5049912;28;20184;-76
2022/06/03 01:12:02;;;;;;;6.90;4.68;;;;;;;9.65;100.00;102146.09;5050293;28;20029;-76
2022/06/03 01:14:41;;;;;;;4.78;3.90;;;;;;;9.66;100.00;102157.59;5037798;28;20124;-76
2022/06/03 01:17:33;;;;;;;8.68;4.38;;;;;;;9.70;100.00;102145.78;5050087;28;20029;-78
2022/06/03 01:20:23;;;;;;;4.97;4.28;;;;;;;9.71;100.00;102151.00;5049796;28;20021;-78
2022/06/03 01:23:11;;;;;;;5.43;4.45;;;;;;;9.74;100.00;102146.47;5050284;28;20096;-78
2022/06/03 01:26:11;;;;;;;6.65;4.35;;;;;;;9.75;100.00;102151.69;5053721;28;20033;-76
2022/06/03 01:28:51;;;;;;;6.80;4.47;;;;;;;9.76;100.00;102149.84;5053538;28;20044;-77
2022/06/03 01:31:28;;;;;;;5.82;4.10;;;;;;;9.79;100.00;102144.34;5053982;28;20127;-77
2022/06/03 01:34:07;;;;;;;6.38;4.30;;;;;;;9.79;100.00;102136.38;5053945;28;20033;-77
2022/06/03 01:36:54;;;;;;;8.00;4.20;;;;;;;9.79;100.00;102136.38;5053644;28;20418;-77
2022/06/03 01:39:38;;;;;;;6.18;4.40;;;;;;;9.80;100.00;102130.94;5052970;28;20024;-77
2022/06/03 01:42:15;;;;;;;5.53;4.05;;;;;;;9.81;100.00;102131.81;5053044;28;20163;-77
2022/06/03 01:45:08;;;;;;;4.97;3.90;;;;;;;9.80;100.00;102127.44;5053392;28;20044;-77
2022/06/03 01:48:08;;;;;;;6.85;4.20;;;;;;;9.80;100.00;102125.63;5052614;28;20141;-77
2022/06/03 01:50:48;;;;;;;7.75;4.05;;;;;;;9.79;100.00;102131.91;5051331;28;20037;-77
2022/06/03 01:53:23;;;;;;;5.38;4.10;;;;;;;9.78;100.00;102132.88;5052897;28;20062;-77
2022/06/03 01:56:07;;;;;;;5.97;4.10;;;;;;;9.79;100.00;102134.56;5052610;28;20025;-79
2022/06/03 01:58:48;;;;;;;5.00;4.50;;;;;;;9.79;100.00;102131.91;5052885;28;20119;-77
2022/06/03 02:01:41;;;;;;;4.28;3.88;;;;;;;9.79;100.00;102129.25;5053515;28;20104;-77
2022/06/03 02:04:25;;;;;;;4.47;3.92;;;;;;;9.80;100.00;102127.44;5052584;28;20025;-77
2022/06/03 02:07:12;;;;;;;8.60;4.32;;;;;;;9.80;100.00;102127.44;5053585;28;20101;-80
2022/06/03 02:09:49;;;;;;;7.00;4.20;;;;;;;9.80;100.00;102124.78;5053250;28;20108;-77
2022/06/03 02:12:33;;;;;;;6.80;3.78;;;;;;;9.81;100.00;102123.84;5052646;28;20503;-77
2022/06/03 02:15:36;;;;;;;11.43;4.13;;;;;;;9.81;100.00;102122.03;5051761;28;20047;-77
2022/06/03 02:18:35;;;;;;;4.85;3.90;;;;;;;9.80;100.00;102124.78;5052426;28;20043;-77
2022/06/03 02:21:27;;;;;;;5.80;4.20;;;;;;;9.80;100.00;102117.66;5052916;28;20064;-77
2022/06/03 02:24:07;;;;;;;5.82;3.78;;;;;;;9.79;100.00;102118.63;5040702;28;20094;-80
2022/06/03 02:26:56;;;;;;;7.38;4.05;;;;;;;9.80;100.00;102116.81;5050949;28;20029;-77
2022/06/03 02:32:20;;;;;;;8.10;3.95;;;;;;;9.77;100.00;102119.69;5052521;28;20456;-78
2022/06/03 02:35:14;;;;;;;9.27;4.00;;;;;;;9.74;100.00;102115.41;5052524;28;20345;-77
2022/06/03 02:38:10;;;;;;;5.75;4.38;;;;;;;9.76;100.00;102123.28;5052058;28;20028;-77
2022/06/03 02:40:57;;;;;;;5.88;3.75;;;;;;;9.75;100.00;102110.94;5052822;28;20086;-76
2022/06/03 02:43:57;;;;;;;4.78;4.03;;;;;;;9.73;100.00;102103.06;5051694;28;20029;-76
2022/06/03 02:46:29;;;;;;;5.63;3.90;;;;;;;9.74;100.00;102110.09;5052403;28;20049;-77
2022/06/03 02:49:32;;;;;;;8.45;3.80;;;;;;;9.73;100.00;102111.03;5052396;28;20045;-79
2022/06/03 02:52:07;;;;;;;5.53;3.88;;;;;;;9.70;99.95;102104.13;5051751;28;20037;-77
2022/06/03 02:54:52;;;;;;;4.53;3.72;;;;;;;9.70;100.00;102101.47;5052292;28;20071;-76
2022/06/03 02:57:40;;;;;;;4.97;3.67;;;;;;;9.69;99.49;102094.47;5051607;28;20417;-76
2022/06/03 03:00:49;;;;;;;4.45;3.70;;;;;;;9.67;99.64;102093.72;5051709;28;20104;-77
2022/06/03 03:03:38;;;;;;;4.82;3.65;;;;;;;9.65;99.72;102084.97;5045609;28;20094;-76
2022/06/03 03:06:22;;;;;;;5.93;4.05;;;;;;;9.63;99.76;102089.56;5051944;28;20029;-79
2022/06/03 03:09:06;;;;;;;6.55;3.50;;;;;;;9.62;99.44;102089.66;5050201;28;20021;-77
2022/06/03 03:11:52;;;;;;;5.80;3.70;;;;;;;9.59;99.02;102089.88;5051574;28;20033;-77
2022/06/03 03:14:47;;;;;;;5.97;4.13;;;;;;;9.57;98.82;102083.78;5049847;28;20044;-77
2022/06/03 03:17:21;;;;;;;4.07;3.65;;;;;;;9.54;99.17;102082.19;5046033;28;20059;-78
2022/06/03 03:20:30;;;;;;;4.38;3.75;;;;;;;9.50;99.00;102070.06;5051260;28;20115;-77
2022/06/03 03:23:11;;;;;;;5.68;4.03;;;;;;;9.44;98.88;102068.66;5042793;28;20098;-76
2022/06/03 03:26:14;;;;;;;6.00;4.07;;;;;;;9.38;99.05;102069.06;5051296;28;20071;-78
2022/06/03 03:29:15;;;;;;;4.90;3.78;;;;;;;9.34;99.00;102065.78;5051088;28;20111;-76
2022/06/03 03:32:07;;;;;;;8.07;3.60;;;;;;;9.28;99.50;102071.47;5051132;28;20028;-76
2022/06/03 03:34:38;;;;;;;7.13;3.95;;;;;;;9.26;99.56;102065.41;5051026;28;20040;-76
2022/06/03 03:37:28;;;;;;;;;;;;;;;9.21;99.86;102059.56;5051510;28;20105;-77
2022/06/03 03:40:05;;;;;;;5.32;3.67;;;;;;;9.15;100.00;102060.81;5051032;28;19912;-76
2022/06/03 03:42:55;;;;;;;8.45;3.92;;;;;;;9.06;99.90;102064.06;5050925;28;20025;-78
2022/06/03 03:45:39;;;;;;;9.00;4.20;;;;;;;9.00;100.00;102069.75;5048262;28;20039;-76
2022/06/03 03:48:42;;;;;;;4.68;3.90;;;;;;;8.93;100.00;102053.38;5050882;28;20040;-76
2022/06/03 03:51:36;;;;;;;5.18;4.20;;;;;;;8.85;100.00;102060.97;5049365;28;20037;-76
2022/06/03 03:54:18;;;;;;;7.03;4.28;;;;;;;8.78;100.00;102068.47;5049122;28;20417;-76
2022/06/03 03:57:15;;;;;;;8.25;4.43;;;;;;;8.74;100.00;102063.47;5050729;28;20033;-77
2022/06/03 03:59:49;;;;;;;6.80;4.18;;;;;;;8.70;100.00;102062.78;5049385;28;20317;-77
2022/06/03 04:02:24;;;;;;;7.78;4.28;;;;;;;8.65;100.00;102059.59;5050078;28;20496;-77
2022/06/03 04:05:10;;;;;;;7.30;4.43;;;;;;;8.61;100.00;102064.25;5050220;28;20032;-77
2022/06/03 04:08:00;;;;;;;5.10;3.85;;;;;;;8.59;100.00;102059.97;5050290;28;20052;-76
2022/06/03 04:10:44;;;;;;;6.38;4.05;;;;;;;8.57;100.00;102056.56;5050534;28;20025;-77
2022/06/03 04:13:20;;;;;;;6.35;4.30;;;;;;;8.57;100.00;102057.44;5049235;28;20380;-77
2022/06/03 04:16:23;;;;;;;8.82;4.63;;;;;;;8.61;100.00;102063.38;5050380;28;20033;-77
2022/06/03 04:19:26;;;;;;;7.75;4.50;;;;;;;8.62;100.00;102050.03;5050349;28;20060;-77
2022/06/03 04:22:29;;;;;;;5.72;4.03;;;;;;;8.61;100.00;102044.81;5048927;28;20192;-78
2022/06/03 04:25:13;;;;;;;7.50;3.97;;;;;;;8.61;100.00;102047.47;5050810;28;20491;-76
2022/06/03 04:28:05;;;;;;;7.97;4.38;;;;;;;8.64;100.00;102044.63;5050385;28;20029;-77
2022/06/03 04:31:08;;;;;;;6.20;3.90;;;;;;;8.68;100.00;102039.97;5050477;28;20048;-78
2022/06/03 04:33:55;;;;;;;10.43;4.13;;;;;;;8.71;100.00;102040.63;5050480;28;20021;-78
2022/06/03 04:36:48;;;;;;;6.00;4.10;;;;;;;8.77;100.00;102036.75;5048626;28;20040;-77
2022/06/03 04:39:32;;;;;;;5.70;4.10;;;;;;;8.84;100.00;102035.41;5049045;28;20154;-78
2022/06/03 04:42:01;;;;;;;6.65;4.22;;;;;;;8.95;100.00;102042.66;5049518;28;20453;-77
2022/06/03 04:45:03;;;;;;;5.65;4.25;;;;;;;9.04;100.00;102038.56;5051134;28;20047;-77
2022/06/03 04:47:57;;;;;;;7.47;4.30;;;;;;;9.16;100.00;102045.72;5050913;28;20171;-78
2022/06/03 04:50:28;;;;;;;6.18;4.25;;;;;;;9.24;100.00;102043.44;5050897;28;20036;-77
2022/06/03 04:53:41;;;;;;;4.45;3.85;;;;;;;9.35;100.00;102045.38;5050464;28;20045;-78
2022/06/03 04:56:25;;;;;;;;;;;;;;;9.41;100.00;102052.09;5051650;28;20082;-77
2022/06/03 04:59:29;;;;;;;6.32;4.38;;;;;;;9.49;100.00;102045.31;5053550;28;19920;-77
2022/06/03 05:02:48;;;;;;;10.98;4.43;;;;;;;9.55;99.81;102037.88;5053465;28;20045;-77
2022/06/03 05:05:53;;;;;;;11.13;4.43;;;;;;;9.66;99.36;102035.34;5031030;28;20029;-80
2022/06/03 05:08:18;;;;;;;8.55;4.00;;;;;;;9.72;98.73;102037.59;5053843;28;20028;-78
2022/06/03 05:11:22;;;;;;;7.00;4.10;;;;;;;9.81;98.90;102034.31;5053655;28;20361;-77
2022/06/03 05:14:13;;;;;;;5.03;3.90;;;;;;;9.88;98.70;102037.38;5053749;28;20112;-77
2022/06/03 05:17:00;;;;;;;6.00;4.25;;;;;;;9.98;98.09;102035.78;5053437;28;20056;-77
2022/06/03 05:19:31;;;;;;;8.23;5.10;;;;;;;10.06;97.13;102048.56;5053463;28;20347;-77
2022/06/03 05:22:14;;;;;;;10.25;4.28;;;;;;;10.18;95.49;102050.38;5053517;28;20033;-77
2022/06/03 05:25:06;;;;;;;7.43;3.90;;;;;;;10.23;95.71;102045.56;5051659;28;20036;-76
2022/06/03 05:27:53;;;;;;;6.25;4.50;;;;;;;10.32;95.44;102037.94;5041557;28;20114;-77
2022/06/03 05:30:47;;;;;;;10.30;4.68;;;;;;;10.41;94.77;102040.81;5053159;28;20044;-78
2022/06/03 05:33:24;;;;;;;9.15;4.30;;;;;;;10.50;93.51;102035.81;5053676;28;20211;-77
2022/06/03 05:36:11;;;;;;;13.85;4.47;;;;;;;10.59;93.66;102032.47;5053330;28;20049;-77
2022/06/03 05:39:01;;;;;;;8.45;4.85;;;;;;;10.70;92.47;102031.69;5052944;28;20037;-77
2022/06/03 05:45:22;;;;;;;8.00;4.60;;;;;;;10.94;91.75;102031.72;5049091;28;20035;-77
2022/06/03 05:47:53;;;;;;;5.32;4.15;;;;;;;11.07;91.71;102032.53;5053728;28;20064;-76
2022/06/03 05:50:26;;;;;;;5.47;4.18;;;;;;;11.22;92.02;102029.69;5052998;28;20083;-82
2022/06/03 05:53:13;;;;;;;6.70;4.10;;;;;;;11.38;91.02;102040.06;5052624;28;20100;-76
2022/06/03 05:56:16;;;;;;;8.02;4.85;;;;;;;11.61;90.80;102039.19;5053229;28;20072;-77
2022/06/03 05:58:49;;;;;;;6.22;4.22;;;;;;;11.83;89.84;102035.69;5053514;28;20047;-77
2022/06/03 06:01:29;;;;;;;4.30;3.90;;;;;;;12.06;88.17;102034.91;5053175;28;20036;-76
2022/06/03 06:04:32;;;;;;;6.53;4.20;;;;;;;12.31;87.42;102026.69;5052998;28;20140;-76
2022/06/03 06:07:16;;;;;;;5.07;4.25;;;;;;;12.53;85.85;102038.34;5030401;28;20034;-76
2022/06/03 06:09:48;;;;;;;6.45;3.95;;;;;;;12.74;85.61;102035.75;5050533;28;20112;-77
2022/06/03 06:12:20;;;;;;;9.07;3.78;;;;;;;12.95;84.46;102035.81;5053189;28;20029;-76
2022/06/03 06:14:45;;;;;;;7.43;4.03;;;;;;;13.13;82.85;102041.47;5051360;28;20036;-77
2022/06/03 06:17:43;;;;;;;7.28;4.40;;;;;;;13.39;82.34;102050.06;5053225;28;20300;-77
2022/06/03 06:20:38;;;;;;;6.32;4.30;;;;;;;13.53;79.06;102048.03;5044628;28;20072;-77
2022/06/03 06:23:15;;;;;;;7.70;3.65;;;;;;;13.72;78.70;102042.00;5052644;28;20135;-77
2022/06/03 06:26:07;;;;;;;4.80;3.83;;;;;;;13.91;76.43;102047.47;5052959;28;20025;-77
2022/06/03 06:28:50;;;;;;;;;;;;;;;14.08;74.39;102046.00;5053090;28;20048;-77
2022/06/03 06:31:36;;;;;;;4.90;3.70;;;;;;;14.16;72.80;102052.53;5053123;28;19908;-77
2022/06/03 06:34:30;;;;;;;4.10;3.70;;;;;;;14.42;73.19;102055.59;5052370;28;20178;-75
2022/06/03 06:37:48;;;;;;;5.63;3.80;;;;;;;14.60;71.94;102048.63;5052485;28;20512;-75
2022/06/03 06:40:19;;;;;;;4.90;3.53;;;;;;;14.80;71.02;102052.22;5030187;28;20026;-75
2022/06/03 06:42:57;;;;;;;6.15;3.88;;;;;;;14.91;70.48;102039.69;5051133;28;20151;-76
2022/06/03 06:45:40;;;;;;;7.10;4.05;;;;;;;15.02;69.93;102044.94;5050734;28;20134;-75
2022/06/03 06:48:48;;;;;;;4.05;3.42;;;;;;;15.15;70.39;102042.84;5051229;28;20147;-74
2022/06/03 06:51:30;;;;;;;4.32;3.40;;;;;;;15.29;69.61;102036.22;5052810;28;20033;-73
2022/06/03 06:53:59;;;;;;;4.93;3.72;;;;;;;15.41;68.57;102031.56;5051481;28;20314;-75
2022/06/03 06:56:43;;;;;;;4.20;3.78;;;;;;;15.63;67.11;102034.91;5052347;28;20120;-76
2022/06/03 06:59:16;;;;;;;6.00;3.50;;;;;;;15.73;68.64;102027.69;5050908;28;20037;-76
2022/06/03 07:01:49;;;;;;;11.60;3.63;;;;;;;15.84;68.13;102032.13;5052508;28;20033;-75
2022/06/03 07:04:30;;;;;;;7.13;3.75;;;;;;;15.94;66.81;102026.69;5052414;28;20037;-72
2022/06/03 07:07:15;;;;;;;6.47;3.30;;;;;;;16.11;65.96;102020.59;5051999;28;20044;-72
2022/06/03 07:09:58;;;;;;;6.57;3.55;;;;;;;16.21;64.18;102017.84;5052022;28;20030;-73
2022/06/03 07:12:35;;;;;;;4.60;3.45;;;;;;;16.30;64.20;102016.97;5052108;28;20037;-73
2022/06/03 07:15:09;;;;;;;7.72;3.35;;;;;;;16.37;64.95;102014.53;5051864;28;20388;-73
2022/06/03 07:20:50;;;;;;;3.75;3.15;;;;;;;16.48;63.40;102014.34;5050811;28;20127;-73
2022/06/03 07:23:34;;;;;;;5.07;3.55;;;;;;;16.61;62.90;102021.19;5051624;28;20040;-73
2022/06/03 07:26:09;;;;;;;6.47;3.50;;;;;;;16.77;63.65;102018.69;5051884;28;20207;-75
2022/06/03 07:28:47;;;;;;;6.63;3.35;;;;;;;16.88;61.76;102023.91;5051289;28;20108;-74
2022/06/03 07:31:38;;;;;;;8.77;3.58;;;;;;;17.04;61.48;102022.38;5051126;28;20029;-76
2022/06/03 07:34:28;;;;;;;5.93;3.40;;;;;;;17.22;62.78;102023.19;5051661;28;20145;-73
2022/06/03 07:37:25;;;;;;;5.70;3.55;;;;;;;17.32;59.52;102031.19;5049978;28;20025;-72
2022/06/03 07:39:58;;;;;;;4.50;3.72;;;;;;;17.35;62.73;102028.19;5051006;28;20231;-74
2022/06/03 07:42:32;;;;;;;4.53;3.30;;;;;;;17.50;59.71;102033.88;5051609;28;20040;-73
2022/06/03 07:45:35;;;;;;;8.73;3.60;;;;;;;17.53;58.66;102024.66;5051512;28;20028;-73
2022/06/03 07:48:04;;;;;;;5.47;3.22;;;;;;;17.53;58.56;102024.66;5051376;28;20123;-71
2022/06/03 07:50:34;;;;;;;6.38;3.25;;;;;;;17.60;59.56;102023.88;5051293;28;20025;-72
2022/06/03 07:53:12;;;;;;;5.28;3.25;;;;;;;17.83;59.33;102022.50;5051195;28;20032;-72
2022/06/03 07:55:37;;;;;;;12.25;3.63;;;;;;;17.98;58.75;102018.25;5051078;28;20025;-73
2022/06/03 07:58:06;;;;;;;4.80;3.42;;;;;;;18.15;58.47;102022.72;5051325;28;20131;-72
2022/06/03 08:00:37;;;;;;;4.32;3.28;;;;;;;18.27;55.70;102011.66;5050991;28;20029;-72
2022/06/03 08:03:13;;;;;;;3.83;3.03;;;;;;;18.36;56.77;102012.53;5051227;28;20078;-75
2022/06/03 08:05:39;;;;;;;4.28;3.00;;;;;;;18.41;57.43;102008.38;5050563;28;20052;-72
2022/06/03 08:11:01;;;;;;;6.82;3.20;;;;;;;18.49;55.47;102004.84;5050970;28;20174;-72
2022/06/03 08:13:43;;;;;;;4.85;2.95;;;;;;;18.72;57.72;101999.72;5050906;28;20082;-72
2022/06/03 08:16:25;;;;;;;3.33;2.83;;;;;;;18.95;55.23;101989.16;5049525;28;20037;-71
2022/06/03 08:18:55;;;;;;;3.67;3.25;;;;;;;19.12;54.35;101984.63;5050615;28;20139;-71
2022/06/03 08:21:31;;;;;;;6.03;2.92;;;;;;;19.18;54.82;101972.31;5050486;28;20033;-71
2022/06/03 08:23:58;;;;;;;4.95;3.08;;;;;;;19.34;54.06;101977.69;5050612;28;20056;-70
2022/06/03 08:26:26;;;;;;;5.10;2.88;;;;;;;19.53;54.36;101975.69;5049266;28;20291;-71
2022/06/03 08:28:57;;;;;;;5.15;2.80;;;;;;;19.88;52.37;101979.84;5050066;28;20478;-71
2022/06/03 08:31:24;;;;;;;6.90;3.00;;;;;;;19.95;51.79;101979.16;5049117;28;20025;-72
2022/06/03 08:33:58;;;;;;;4.35;3.20;;;;;;;20.25;52.19;101975.66;5050209;28;20504;-72
2022/06/03 08:36:29;;;;;;;5.10;2.70;;;;;;;20.72;51.11;101970.38;5050579;28;20077;-73
2022/06/03 08:39:00;;;;;;;5.07;2.53;;;;;;;21.22;50.04;101973.56;5050424;28;20035;-71
2022/06/03 08:41:40;;;;;;;;;;;;;;;21.67;49.54;101963.69;5049368;28;20389;-71
2022/06/03 08:44:44;;;;;;;5.75;2.90;;;;;;;22.32;45.51;101963.97;5050338;28;20011;-70
2022/06/03 08:47:23;;;;;;;4.20;2.65;;;;;;;22.77;42.39;101963.84;5031489;28;20056;-72
2022/06/03 08:50:10;;;;;;;4.05;2.60;;;;;;;23.39;43.19;101956.88;5050084;28;20025;-72
2022/06/03 08:52:50;;;;;;;3.22;2.83;;;;;;;23.77;42.17;101951.09;5048979;28;20139;-73
2022/06/03 08:55:32;;;;;;;5.30;2.92;;;;;;;24.29;39.09;101951.59;5049173;28;20040;-72
2022/06/03 08:58:07;;;;;;;7.72;2.90;;;;;;;24.82;39.58;101951.72;5049766;28;20029;-73
2022/06/03 09:01:03;;;;;;;3.38;2.90;;;;;;;25.27;38.31;101951.09;5050255;28;20454;-73
2022/06/03 09:03:32;;;;;;;6.45;2.60;;;;;;;25.94;36.96;101952.91;5047989;28;20071;-72
2022/06/03 09:06:11;;;;;;;5.00;2.63;;;;;;;26.52;36.54;101957.50;5049784;28;20055;-72
2022/06/03 09:08:55;;;;;;;3.78;2.72;;;;;;;26.85;34.41;101951.03;5048935;28;20408;-72
2022/06/03 09:11:48;;;;;;;4.53;2.60;;;;;;;27.78;33.11;101947.47;5050105;28;20025;-71
2022/06/03 09:14:21;;;;;;;5.68;2.50;;;;;;;27.94;32.50;101945.16;5050713;28;20045;-72
2022/06/03 09:16:51;;;;;;;8.98;2.58;;;;;;;28.37;31.76;101954.34;5049659;28;20025;-72
2022/06/03 09:19:32;;;;;;;3.78;2.50;;;;;;;28.29;31.29;101952.75;5049694;28;20079;-73
2022/06/03 09:22:01;;;;;;;11.15;2.78;;;;;;;28.10;30.22;101949.22;5049929;28;20461;-73
2022/06/03 09:24:32;;;;;;;4.03;1.92;;;;;;;28.89;30.61;101943.69;5049950;28;20457;-72
2022/06/03 09:26:59;;;;;;;;;;;;;;;29.24;29.87;101947.56;5050858;28;20051;-72
2022/06/03 09:29:25;;;;;;;6.07;2.78;;;;;;;29.25;29.20;101947.34;5049848;28;19909;-72
2022/06/03 09:31:56;;;;;;;4.72;2.40;;;;;;;29.49;29.57;101950.91;5049692;28;20476;-72
2022/06/03 09:34:33;;;;;;;3.97;2.70;;;;;;;29.63;29.70;101953.38;5049967;28;20033;-72
2022/06/03 09:36:59;;;;;;;4.50;2.92;;;;;;;30.29;29.33;101947.63;5049754;28;20083;-73
2022/06/03 09:39:25;;;;;;;3.30;2.33;;;;;;;30.39;29.70;101940.41;5049721;28;20234;-73
2022/06/03 09:41:55;;;;;;;6.25;2.40;;;;;;;30.23;30.11;101944.81;5031803;28;20106;-74
2022/06/03 09:44:24;;;;;;;4.63;2.03;;;;;;;30.22;28.53;101934.88;5051432;28;20044;-73
2022/06/03 09:46:59;;;;;;;4.88;2.47;;;;;;;29.84;28.93;101950.06;5053482;28;20133;-74
2022/06/03 09:49:26;;;;;;;13.77;3.45;;;;;;;29.99;30.66;101955.03;5053498;28;20052;-71
2022/06/03 09:52:03;;;;;;;4.40;2.60;;;;;;;29.05;31.27;101944.88;5051744;28;20033;-73
2022/06/03 09:54:28;;;;;;;5.82;2.63;;;;;;;29.42;30.75;101943.88;5053751;28;20386;-70
2022/06/03 09:56:59;;;;;;;7.53;3.05;;;;;;;29.35;30.33;101946.72;5052844;28;20064;-71
2022/06/03 09:59:27;;;;;;;3.85;2.00;;;;;;;30.15;28.79;101949.84;5052894;28;20033;-70
2022/06/03 10:01:53;;;;;;;4.55;2.40;;;;;;;30.34;28.23;101951.31;5051615;28;20101;-71
2022/06/03 10:04:22;;;;;;;5.53;2.58;;;;;;;29.89;29.96;101950.16;5052881;28;20061;-70
2022/06/03 10:06:50;;;;;;;7.03;2.85;;;;;;;29.62;31.74;101943.47;5052958;28;20425;-75
2022/06/03 10:17:36;;;;;;;3.58;2.75;;;;;;;30.03;29.85;101941.66;5052612;28;20048;-77
2022/06/03 10:20:02;;;;;;;4.53;2.55;;;;;;;30.73;29.49;101942.44;5052176;28;20029;-76
2022/06/03 10:22:29;;;;;;;8.02;2.60;;;;;;;30.99;27.66;101937.38;5051171;28;20036;-78
2022/06/03 10:24:55;;;;;;;6.47;2.50;;;;;;;30.68;28.28;101934.09;5051133;28;20029;-80
2022/06/03 10:27:21;;;;;;;4.10;2.47;;;;;;;30.64;28.23;101941.19;5052117;28;20037;-75
2022/06/03 10:29:49;;;;;;;5.75;2.70;;;;;;;29.87;29.01;101930.38;5052311;28;20115;-81
2022/06/03 10:32:18;;;;;;;4.68;2.28;;;;;;;30.14;28.96;101924.31;5052251;28;20029;-76
2022/06/03 10:34:44;;;;;;;6.10;2.53;;;;;;;30.50;29.31;101930.50;5052531;28;20071;-81
2022/06/03 10:37:14;;;;;;;5.32;2.35;;;;;;;30.55;28.25;101936.06;5052398;28;20121;-80
2022/06/03 10:39:41;;;;;;;3.20;2.25;;;;;;;29.96;28.45;101916.25;5051926;28;20037;-76
2022/06/03 10:42:13;;;;;;;2.53;2.10;;;;;;;30.66;29.50;101911.53;5052444;28;20032;-76
2022/06/03 10:44:44;;;;;;;2.67;2.17;;;;;;;30.41;27.53;101913.59;5050991;28;20518;-75
2022/06/03 10:47:17;;;;;;;;;;;;;;;30.48;27.56;101915.34;5052583;28;20144;-78
2022/06/03 10:49:59;;;;;;;2.90;1.90;;;;;;;31.15;29.69;101917.31;5052021;28;20403;-74
2022/06/03 11:01:08;;;;;;;3.17;2.20;;;;;;;30.23;28.62;101906.38;5052100;28;20106;-77
2022/06/03 11:03:38;;;;;;;8.07;2.20;;;;;;;30.18;29.04;101910.94;5052246;28;20032;-72
2022/06/03 11:06:18;;;;;;;2.70;1.67;;;;;;;30.19;27.79;101910.69;5052553;28;20021;-72
2022/06/03 11:08:49;;;;;;;3.72;1.98;;;;;;;29.99;26.07;101910.28;5052817;28;20037;-73
2022/06/03 11:11:30;;;;;;;2.90;1.38;;;;;;;30.04;29.06;101896.69;5051939;28;20344;-72
2022/06/03 11:13:56;;;;;;;3.80;1.70;;;;;;;30.10;29.10;101903.06;5051963;28;20029;-72
2022/06/03 11:16:24;;;;;;;2.55;1.40;;;;;;;30.09;28.77;101901.44;5051854;28;20025;-73
2022/06/03 11:18:50;;;;;;;2.50;1.73;;;;;;;30.36;26.42;101899.72;5050651;28;20040;-73
2022/06/03 11:21:23;;;;;;;3.83;1.70;;;;;;;30.54;28.20;101897.88;5051946;28;20041;-72
2022/06/03 11:23:50;;;;;;;4.30;1.60;;;;;;;31.01;26.82;101896.75;5050544;28;20157;-73
2022/06/03 11:26:16;;;;;;;4.50;1.83;;;;;;;30.66;26.67;101897.81;5052024;28;20086;-73
2022/06/03 11:28:51;;;;;;;2.97;1.90;;;;;;;30.73;27.17;101903.97;5051471;28;20029;-72
2022/06/03 11:31:35;;;;;;;3.40;1.40;;;;;;;30.68;28.03;101903.88;5051928;28;20047;-73
2022/06/03 11:34:37;;;;;;;2.85;1.60;;;;;;;31.10;27.26;101901.56;5052665;28;20130;-72
2022/06/03 11:37:10;;;;;;;2.30;1.60;;;;;;;30.82;27.85;101898.91;5052546;28;20029;-71
2022/06/03 11:39:42;;;;;;;5.18;1.85;;;;;;;31.10;25.87;101898.81;5052250;28;20033;-74
2022/06/03 11:42:19;;;;;;;7.47;1.90;;;;;;;31.21;26.96;101896.22;5051378;28;20029;-75
2022/06/03 11:44:47;;;;;;;3.85;1.92;;;;;;;31.77;27.49;101902.50;5051272;28;20075;-72
2022/06/03 11:47:31;;;;;;;8.85;2.05;;;;;;;31.92;25.35;101901.88;5050661;28;20052;-73
2022/06/03 11:49:56;;;;;;;11.35;2.42;;;;;;;32.07;25.04;101908.59;5051483;28;20088;-71
2022/06/03 11:52:22;;;;;;;6.88;1.95;;;;;;;32.38;25.53;101900.69;5050969;28;20233;-69
2022/06/03 11:54:48;;;;;;;54.13;35.92;;;;;;;32.51;24.46;101909.34;5050961;28;20087;-72
2022/06/03 11:57:14;;;;;;;5.05;3.53;;;;;;;32.21;25.73;101903.56;5051133;28;20037;-73
2022/06/03 11:59:55;;;;;;;4.30;1.85;;;;;;;32.32;25.06;101899.81;5050934;28;20044;-72
2022/06/03 12:02:34;;;;;;;12.65;2.42;;;;;;;31.82;26.71;101901.75;5050858;28;20032;-73
2022/06/03 12:05:13;;;;;;;15.57;2.33;;;;;;;31.93;23.62;101902.69;5050846;28;20025;-72
2022/06/03 12:07:49;;;;;;;19.40;2.38;;;;;;;31.88;25.75;101897.97;5050636;28;20025;-73
2022/06/03 12:10:23;;;;;;;5.20;1.90;;;;;;;31.73;27.71;101897.78;5050850;28;20032;-72
2022/06/03 12:13:22;;;;;;;9.75;2.25;;;;;;;31.34;29.80;101898.63;5050905;28;20090;-73
2022/06/03 12:15:53;;;;;;;1.90;1.80;;;;;;;30.97;29.21;101892.81;5050469;28;20051;-72
2022/06/03 12:18:31;;;;;;;11.13;2.35;;;;;;;31.82;30.19;101899.00;5050642;28;20036;-74
2022/06/03 12:20:58;;;;;;;6.10;2.15;;;;;;;31.73;27.29;101906.84;5050532;28;20212;-76
2022/06/03 12:23:23;;;;;;;1.80;1.70;;;;;;;31.52;26.87;101902.97;5049237;28;20028;-75
2022/06/03 12:25:48;;;;;;;3.35;1.90;;;;;;;30.79;25.97;101902.97;5050471;28;20434;-74
2022/06/03 12:28:22;;;;;;;3.20;1.60;;;;;;;30.61;29.34;101909.53;5050141;28;20575;-74
2022/06/03 12:30:57;;;;;;;3.55;2.95;;;;;;;30.50;28.83;101897.56;5050962;28;20033;-74
2022/06/03 12:33:27;;;;;;;4.82;1.80;;;;;;;30.61;29.39;101901.31;5050165;28;20074;-74
2022/06/03 12:35:59;;;;;;;5.53;1.73;;;;;;;31.42;31.46;101906.41;5050521;28;20048;-75
2022/06/03 12:38:32;;;;;;;51.22;7.72;;;;;;;31.46;30.17;101901.25;5050553;28;20500;-74
2022/06/03 12:41:01;;;;;;;20.63;4.22;;;;;;;31.02;26.18;101892.91;5049356;28;20033;-75
2022/06/03 12:43:29;;;;;;;5.07;1.80;;;;;;;31.50;27.70;101891.41;5050470;28;20338;-75
2022/06/03 12:46:03;;;;;;;4.82;1.90;;;;;;;31.69;28.33;101885.63;5050215;28;20115;-76
2022/06/03 12:48:44;;;;;;;2.35;1.98;;;;;;;32.40;27.10;101887.53;5050368;28;20105;-74
2022/06/03 12:51:19;;;;;;;2.95;1.95;;;;;;;32.06;27.04;101888.53;5049094;28;20406;-73
2022/06/03 12:53:46;;;;;;;6.10;1.70;;;;;;;32.43;30.45;101887.00;5050611;28;20163;-72
2022/06/03 12:56:38;;;;;;;5.32;1.90;;;;;;;32.39;26.41;101894.13;5050232;28;20037;-71
2022/06/03 12:59:55;;;;;;;5.82;1.63;;;;;;;32.58;27.17;101898.13;5050340;28;20035;-73